sensor_id;sensor_type;location;lat;lon;timestamp;temperature;humidity
5901;DHT22;2976;49.764;9.796;2023-05-20T00:01:58;12.70;1.00
5901;DHT22;2976;49.764;9.796;2023-05-20T00:04:23;12.70;1.00
5901;DHT22;2976;49.764;9.796;2023-05-20T00:06:49;12.60;1.00
5901;DHT22;2976;49.764;9.796;2023-05-20T00:09:14;12.60;1.00
5901;DHT22;2976;49.764;9.796;2023-05-20T00:11:41;12.60;1.00
5901;DHT22;2976;49.764;9.796;2023-05-20T00:14:07;12.60;1.00
5901;DHT22;2976;49.764;9.796;2023-05-20T00:16:32;12.50;1.00
5901;DHT22;2976;49.764;9.796;2023-05-20T00:18:58;12.50;1.00
5901;DHT22;2976;49.764;9.796;2023-05-20T00:21:23;12.40;1.00
5901;DHT22;2976;49.764;9.796;2023-05-20T00:23:49;12.40;1.00
5901;DHT22;2976;49.764;9.796;2023-05-20T00:26:15;12.40;1.00
5901;DHT22;2976;49.764;9.796;2023-05-20T00:28:41;12.30;1.00
5901;DHT22;2976;49.764;9.796;2023-05-20T00:31:07;12.30;1.00
5901;DHT22;2976;49.764;9.796;2023-05-20T00:33:32;12.30;1.00
5901;DHT22;2976;49.764;9.796;2023-05-20T00:35:59;12.30;1.00
5901;DHT22;2976;49.764;9.796;2023-05-20T00:38:25;12.30;1.00
5901;DHT22;2976;49.764;9.796;2023-05-20T00:40:50;12.30;1.00
5901;DHT22;2976;49.764;9.796;2023-05-20T00:43:16;12.30;1.00
5901;DHT22;2976;49.764;9.796;2023-05-20T00:45:41;12.30;1.00
5901;DHT22;2976;49.764;9.796;2023-05-20T00:48:07;12.30;1.00
5901;DHT22;2976;49.764;9.796;2023-05-20T00:50:33;12.30;1.00
5901;DHT22;2976;49.764;9.796;2023-05-20T00:53:00;12.40;1.00
5901;DHT22;2976;49.764;9.796;2023-05-20T00:55:26;12.40;1.00
5901;DHT22;2976;49.764;9.796;2023-05-20T00:57:52;12.40;1.00
5901;DHT22;2976;49.764;9.796;2023-05-20T01:00:18;12.40;1.00
5901;DHT22;2976;49.764;9.796;2023-05-20T01:02:44;12.40;1.00
5901;DHT22;2976;49.764;9.796;2023-05-20T01:05:09;12.40;1.00
5901;DHT22;2976;49.764;9.796;2023-05-20T01:07:35;12.40;1.00
5901;DHT22;2976;49.764;9.796;2023-05-20T01:10:01;12.40;1.00
5901;DHT22;2976;49.764;9.796;2023-05-20T01:12:37;12.40;1.00
5901;DHT22;2976;49.764;9.796;2023-05-20T01:15:11;12.40;1.00
5901;DHT22;2976;49.764;9.796;2023-05-20T01:17:39;12.40;1.00
5901;DHT22;2976;49.764;9.796;2023-05-20T01:20:07;12.40;1.00
5901;DHT22;2976;49.764;9.796;2023-05-20T01:22:38;12.50;1.00
5901;DHT22;2976;49.764;9.796;2023-05-20T01:25:11;12.50;1.00
5901;DHT22;2976;49.764;9.796;2023-05-20T01:27:36;12.50;1.00
5901;DHT22;2976;49.764;9.796;2023-05-20T01:30:02;12.50;1.00
5901;DHT22;2976;49.764;9.796;2023-05-20T01:32:33;12.50;1.00
5901;DHT22;2976;49.764;9.796;2023-05-20T01:34:59;12.50;1.00
5901;DHT22;2976;49.764;9.796;2023-05-20T01:37:26;12.50;1.00
5901;DHT22;2976;49.764;9.796;2023-05-20T01:39:53;12.50;1.00
5901;DHT22;2976;49.764;9.796;2023-05-20T01:42:19;12.50;1.00
5901;DHT22;2976;49.764;9.796;2023-05-20T01:44:45;12.50;1.00
5901;DHT22;2976;49.764;9.796;2023-05-20T01:47:11;12.50;1.00
5901;DHT22;2976;49.764;9.796;2023-05-20T01:49:37;12.50;1.00
5901;DHT22;2976;49.764;9.796;2023-05-20T01:52:03;12.60;1.00
5901;DHT22;2976;49.764;9.796;2023-05-20T01:54:29;12.50;1.00
5901;DHT22;2976;49.764;9.796;2023-05-20T01:56:55;12.60;1.00
5901;DHT22;2976;49.764;9.796;2023-05-20T01:59:20;12.60;1.00
5901;DHT22;2976;49.764;9.796;2023-05-20T02:01:46;12.60;1.00
5901;DHT22;2976;49.764;9.796;2023-05-20T02:04:11;12.60;1.00
5901;DHT22;2976;49.764;9.796;2023-05-20T02:06:37;12.60;1.00
5901;DHT22;2976;49.764;9.796;2023-05-20T02:09:03;12.60;1.00
5901;DHT22;2976;49.764;9.796;2023-05-20T02:11:28;12.60;1.00
5901;DHT22;2976;49.764;9.796;2023-05-20T02:13:54;12.60;1.00
5901;DHT22;2976;49.764;9.796;2023-05-20T02:16:19;12.60;1.00
5901;DHT22;2976;49.764;9.796;2023-05-20T02:18:45;12.60;1.00
5901;DHT22;2976;49.764;9.796;2023-05-20T02:21:11;12.60;1.00
5901;DHT22;2976;49.764;9.796;2023-05-20T02:23:36;12.60;1.00
5901;DHT22;2976;49.764;9.796;2023-05-20T02:26:02;12.60;1.00
5901;DHT22;2976;49.764;9.796;2023-05-20T02:28:27;12.60;1.50
5901;DHT22;2976;49.764;9.796;2023-05-20T02:30:53;12.60;1.00
5901;DHT22;2976;49.764;9.796;2023-05-20T02:33:18;12.60;5.30
5901;DHT22;2976;49.764;9.796;2023-05-20T02:35:44;12.60;4.10
5901;DHT22;2976;49.764;9.796;2023-05-20T02:38:11;12.60;7.70
5901;DHT22;2976;49.764;9.796;2023-05-20T02:40:36;12.60;10.80
5901;DHT22;2976;49.764;9.796;2023-05-20T02:43:02;12.50;16.30
5901;DHT22;2976;49.764;9.796;2023-05-20T02:45:28;12.50;23.40
5901;DHT22;2976;49.764;9.796;2023-05-20T02:47:54;12.50;28.50
5901;DHT22;2976;49.764;9.796;2023-05-20T02:50:19;12.60;28.00
5901;DHT22;2976;49.764;9.796;2023-05-20T02:52:45;12.50;24.60
5901;DHT22;2976;49.764;9.796;2023-05-20T02:55:12;12.60;27.00
5901;DHT22;2976;49.764;9.796;2023-05-20T02:57:37;12.60;26.50
5901;DHT22;2976;49.764;9.796;2023-05-20T03:00:04;12.50;30.60
5901;DHT22;2976;49.764;9.796;2023-05-20T03:02:31;12.50;35.70
5901;DHT22;2976;49.764;9.796;2023-05-20T03:04:57;12.50;43.50
5901;DHT22;2976;49.764;9.796;2023-05-20T03:07:22;12.50;47.90
5901;DHT22;2976;49.764;9.796;2023-05-20T03:09:48;12.50;52.40
5901;DHT22;2976;49.764;9.796;2023-05-20T03:12:14;12.50;51.20
5901;DHT22;2976;49.764;9.796;2023-05-20T03:14:40;12.50;55.50
5901;DHT22;2976;49.764;9.796;2023-05-20T03:17:05;12.50;52.90
5901;DHT22;2976;49.764;9.796;2023-05-20T03:19:31;12.50;54.60
5901;DHT22;2976;49.764;9.796;2023-05-20T03:21:57;12.50;54.60
5901;DHT22;2976;49.764;9.796;2023-05-20T03:24:22;12.50;58.10
5901;DHT22;2976;49.764;9.796;2023-05-20T03:26:48;12.50;61.80
5901;DHT22;2976;49.764;9.796;2023-05-20T03:29:14;12.50;62.60
5901;DHT22;2976;49.764;9.796;2023-05-20T03:31:40;12.50;68.40
5901;DHT22;2976;49.764;9.796;2023-05-20T03:34:06;12.50;76.00
5901;DHT22;2976;49.764;9.796;2023-05-20T03:36:32;12.50;77.50
5901;DHT22;2976;49.764;9.796;2023-05-20T03:38:58;12.50;77.00
5901;DHT22;2976;49.764;9.796;2023-05-20T03:41:23;12.50;71.80
5901;DHT22;2976;49.764;9.796;2023-05-20T03:43:49;12.50;85.00
5901;DHT22;2976;49.764;9.796;2023-05-20T03:46:14;12.50;85.90
5901;DHT22;2976;49.764;9.796;2023-05-20T03:48:40;12.50;87.70
5901;DHT22;2976;49.764;9.796;2023-05-20T03:51:06;12.50;91.90
5901;DHT22;2976;49.764;9.796;2023-05-20T03:53:31;12.50;93.00
5901;DHT22;2976;49.764;9.796;2023-05-20T03:55:57;12.50;95.90
5901;DHT22;2976;49.764;9.796;2023-05-20T03:58:22;12.50;99.20
5901;DHT22;2976;49.764;9.796;2023-05-20T04:00:48;12.50;99.90
5901;DHT22;2976;49.764;9.796;2023-05-20T04:03:13;12.50;99.90
5901;DHT22;2976;49.764;9.796;2023-05-20T04:05:40;12.50;99.90
5901;DHT22;2976;49.764;9.796;2023-05-20T04:08:06;12.50;99.90
5901;DHT22;2976;49.764;9.796;2023-05-20T04:10:31;12.50;99.90
5901;DHT22;2976;49.764;9.796;2023-05-20T04:12:57;12.50;99.90
5901;DHT22;2976;49.764;9.796;2023-05-20T04:15:23;12.50;99.90
5901;DHT22;2976;49.764;9.796;2023-05-20T04:17:50;12.50;99.90
5901;DHT22;2976;49.764;9.796;2023-05-20T04:20:17;12.50;99.90
5901;DHT22;2976;49.764;9.796;2023-05-20T04:22:43;12.60;99.90
5901;DHT22;2976;49.764;9.796;2023-05-20T04:25:09;12.60;99.90
5901;DHT22;2976;49.764;9.796;2023-05-20T04:27:34;12.60;99.90
5901;DHT22;2976;49.764;9.796;2023-05-20T04:30:02;12.60;99.90
5901;DHT22;2976;49.764;9.796;2023-05-20T04:32:28;12.60;99.90
5901;DHT22;2976;49.764;9.796;2023-05-20T04:34:54;12.70;99.90
5901;DHT22;2976;49.764;9.796;2023-05-20T04:37:20;12.70;99.90
5901;DHT22;2976;49.764;9.796;2023-05-20T04:39:47;12.70;99.90
5901;DHT22;2976;49.764;9.796;2023-05-20T04:42:14;12.70;98.80
5901;DHT22;2976;49.764;9.796;2023-05-20T04:44:42;12.80;98.20
5901;DHT22;2976;49.764;9.796;2023-05-20T04:47:10;12.80;90.50
5901;DHT22;2976;49.764;9.796;2023-05-20T04:49:37;12.90;88.50
5901;DHT22;2976;49.764;9.796;2023-05-20T04:52:03;12.90;84.30
5901;DHT22;2976;49.764;9.796;2023-05-20T04:54:29;12.90;84.80
5901;DHT22;2976;49.764;9.796;2023-05-20T04:56:55;12.90;80.50
5901;DHT22;2976;49.764;9.796;2023-05-20T04:59:21;13.00;67.60
5901;DHT22;2976;49.764;9.796;2023-05-20T05:01:47;13.00;55.50
5901;DHT22;2976;49.764;9.796;2023-05-20T05:04:12;13.00;59.90
5901;DHT22;2976;49.764;9.796;2023-05-20T05:06:38;13.10;49.70
5901;DHT22;2976;49.764;9.796;2023-05-20T05:09:03;13.10;46.50
5901;DHT22;2976;49.764;9.796;2023-05-20T05:11:29;13.10;36.00
5901;DHT22;2976;49.764;9.796;2023-05-20T05:13:55;13.20;28.70
5901;DHT22;2976;49.764;9.796;2023-05-20T05:16:21;13.20;20.10
5901;DHT22;2976;49.764;9.796;2023-05-20T05:18:46;13.20;21.80
5901;DHT22;2976;49.764;9.796;2023-05-20T05:21:12;13.30;9.40
5901;DHT22;2976;49.764;9.796;2023-05-20T05:23:37;13.30;1.00
5901;DHT22;2976;49.764;9.796;2023-05-20T05:26:03;13.40;1.00
5901;DHT22;2976;49.764;9.796;2023-05-20T05:28:28;13.60;1.00
5901;DHT22;2976;49.764;9.796;2023-05-20T05:30:54;13.70;1.00
5901;DHT22;2976;49.764;9.796;2023-05-20T05:33:22;13.90;1.00
5901;DHT22;2976;49.764;9.796;2023-05-20T05:35:49;14.00;1.00
5901;DHT22;2976;49.764;9.796;2023-05-20T05:38:15;14.00;99.90
5901;DHT22;2976;49.764;9.796;2023-05-20T05:40:41;14.00;99.90
5901;DHT22;2976;49.764;9.796;2023-05-20T05:43:06;13.90;1.00
5901;DHT22;2976;49.764;9.796;2023-05-20T05:45:32;13.80;1.00
5901;DHT22;2976;49.764;9.796;2023-05-20T05:47:58;13.80;1.00
5901;DHT22;2976;49.764;9.796;2023-05-20T05:50:23;13.60;1.00
5901;DHT22;2976;49.764;9.796;2023-05-20T05:52:49;13.60;1.00
5901;DHT22;2976;49.764;9.796;2023-05-20T05:55:14;13.90;1.00
5901;DHT22;2976;49.764;9.796;2023-05-20T05:57:40;14.10;99.90
5901;DHT22;2976;49.764;9.796;2023-05-20T06:00:06;14.50;1.00
5901;DHT22;2976;49.764;9.796;2023-05-20T06:02:32;14.60;99.90
5901;DHT22;2976;49.764;9.796;2023-05-20T06:05:02;14.80;99.90
5901;DHT22;2976;49.764;9.796;2023-05-20T06:07:27;15.10;1.00
5901;DHT22;2976;49.764;9.796;2023-05-20T06:09:53;15.20;1.00
5901;DHT22;2976;49.764;9.796;2023-05-20T06:12:18;15.30;1.00
5901;DHT22;2976;49.764;9.796;2023-05-20T06:14:44;15.40;99.90
5901;DHT22;2976;49.764;9.796;2023-05-20T06:17:09;16.20;99.90
5901;DHT22;2976;49.764;9.796;2023-05-20T06:19:35;16.90;99.90
5901;DHT22;2976;49.764;9.796;2023-05-20T06:22:01;17.40;1.00
5901;DHT22;2976;49.764;9.796;2023-05-20T06:24:26;17.30;1.00
5901;DHT22;2976;49.764;9.796;2023-05-20T06:26:52;17.50;1.00
5901;DHT22;2976;49.764;9.796;2023-05-20T06:29:17;17.80;1.00
5901;DHT22;2976;49.764;9.796;2023-05-20T06:31:43;18.90;99.90
5901;DHT22;2976;49.764;9.796;2023-05-20T06:34:08;18.20;1.00
5901;DHT22;2976;49.764;9.796;2023-05-20T06:36:34;18.50;99.90
5901;DHT22;2976;49.764;9.796;2023-05-20T06:39:00;18.60;99.90
5901;DHT22;2976;49.764;9.796;2023-05-20T06:41:25;18.50;99.90
5901;DHT22;2976;49.764;9.796;2023-05-20T06:43:51;18.60;99.90
5901;DHT22;2976;49.764;9.796;2023-05-20T06:46:17;17.80;1.00
5901;DHT22;2976;49.764;9.796;2023-05-20T06:48:42;17.00;99.90
5901;DHT22;2976;49.764;9.796;2023-05-20T06:51:08;17.20;83.30
5901;DHT22;2976;49.764;9.796;2023-05-20T06:53:34;17.10;1.00
5901;DHT22;2976;49.764;9.796;2023-05-20T06:56:00;16.90;99.90
5901;DHT22;2976;49.764;9.796;2023-05-20T06:58:26;16.60;99.90
5901;DHT22;2976;49.764;9.796;2023-05-20T07:00:52;16.40;1.00
5901;DHT22;2976;49.764;9.796;2023-05-20T07:03:17;16.40;1.00
5901;DHT22;2976;49.764;9.796;2023-05-20T07:05:43;16.70;1.00
5901;DHT22;2976;49.764;9.796;2023-05-20T07:08:09;17.10;1.00
5901;DHT22;2976;49.764;9.796;2023-05-20T07:10:34;17.60;19.20
5901;DHT22;2976;49.764;9.796;2023-05-20T07:13:00;17.80;1.00
5901;DHT22;2976;49.764;9.796;2023-05-20T07:15:26;17.80;1.00
5901;DHT22;2976;49.764;9.796;2023-05-20T07:17:51;17.70;1.00
5901;DHT22;2976;49.764;9.796;2023-05-20T07:20:17;18.00;1.00
5901;DHT22;2976;49.764;9.796;2023-05-20T07:22:43;18.00;1.00
5901;DHT22;2976;49.764;9.796;2023-05-20T07:25:09;17.80;1.00
5901;DHT22;2976;49.764;9.796;2023-05-20T07:27:35;17.50;1.00
5901;DHT22;2976;49.764;9.796;2023-05-20T07:30:01;17.60;99.90
5901;DHT22;2976;49.764;9.796;2023-05-20T07:32:26;17.70;1.00
5901;DHT22;2976;49.764;9.796;2023-05-20T07:34:52;18.20;1.00
5901;DHT22;2976;49.764;9.796;2023-05-20T07:37:17;18.40;1.00
5901;DHT22;2976;49.764;9.796;2023-05-20T07:39:43;18.80;99.90
5901;DHT22;2976;49.764;9.796;2023-05-20T07:42:09;18.70;99.90
5901;DHT22;2976;49.764;9.796;2023-05-20T07:44:34;19.00;99.90
5901;DHT22;2976;49.764;9.796;2023-05-20T07:47:01;18.90;99.90
5901;DHT22;2976;49.764;9.796;2023-05-20T07:49:27;18.70;99.90
5901;DHT22;2976;49.764;9.796;2023-05-20T07:51:52;18.90;99.90
5901;DHT22;2976;49.764;9.796;2023-05-20T07:54:18;19.10;99.90
5901;DHT22;2976;49.764;9.796;2023-05-20T07:56:43;19.00;99.90
5901;DHT22;2976;49.764;9.796;2023-05-20T07:59:09;19.00;99.90
5901;DHT22;2976;49.764;9.796;2023-05-20T08:01:35;19.20;99.90
5901;DHT22;2976;49.764;9.796;2023-05-20T08:04:01;19.40;99.90
5901;DHT22;2976;49.764;9.796;2023-05-20T08:06:27;19.50;99.90
5901;DHT22;2976;49.764;9.796;2023-05-20T08:08:52;19.30;99.90
5901;DHT22;2976;49.764;9.796;2023-05-20T08:11:19;18.70;99.90
5901;DHT22;2976;49.764;9.796;2023-05-20T08:13:45;18.00;1.00
5901;DHT22;2976;49.764;9.796;2023-05-20T08:16:11;17.70;1.00
5901;DHT22;2976;49.764;9.796;2023-05-20T08:18:37;17.50;1.00
5901;DHT22;2976;49.764;9.796;2023-05-20T08:21:03;17.20;99.90
5901;DHT22;2976;49.764;9.796;2023-05-20T08:23:29;17.30;88.10
5901;DHT22;2976;49.764;9.796;2023-05-20T08:25:54;17.60;1.00
5901;DHT22;2976;49.764;9.796;2023-05-20T08:28:21;18.00;1.00
5901;DHT22;2976;49.764;9.796;2023-05-20T08:30:47;18.40;99.90
5901;DHT22;2976;49.764;9.796;2023-05-20T08:33:13;18.50;99.90
5901;DHT22;2976;49.764;9.796;2023-05-20T08:35:39;18.90;99.90
5901;DHT22;2976;49.764;9.796;2023-05-20T08:38:05;19.10;99.90
5901;DHT22;2976;49.764;9.796;2023-05-20T08:40:33;19.80;99.90
5901;DHT22;2976;49.764;9.796;2023-05-20T08:42:59;20.10;99.90
5901;DHT22;2976;49.764;9.796;2023-05-20T08:45:26;20.10;99.90
5901;DHT22;2976;49.764;9.796;2023-05-20T08:47:54;19.70;99.90
5901;DHT22;2976;49.764;9.796;2023-05-20T08:50:20;19.50;99.90
5901;DHT22;2976;49.764;9.796;2023-05-20T08:52:46;19.00;99.90
5901;DHT22;2976;49.764;9.796;2023-05-20T08:55:37;18.60;99.90
5901;DHT22;2976;49.764;9.796;2023-05-20T08:58:06;18.70;99.90
5901;DHT22;2976;49.764;9.796;2023-05-20T09:00:31;18.80;99.90
5901;DHT22;2976;49.764;9.796;2023-05-20T09:02:58;18.60;99.90
5901;DHT22;2976;49.764;9.796;2023-05-20T09:05:24;18.40;99.90
5901;DHT22;2976;49.764;9.796;2023-05-20T09:07:50;18.00;99.90
5901;DHT22;2976;49.764;9.796;2023-05-20T09:10:16;18.00;99.90
5901;DHT22;2976;49.764;9.796;2023-05-20T09:12:41;18.20;99.90
5901;DHT22;2976;49.764;9.796;2023-05-20T09:15:08;18.10;99.90
5901;DHT22;2976;49.764;9.796;2023-05-20T09:17:37;18.20;99.90
5901;DHT22;2976;49.764;9.796;2023-05-20T09:20:08;18.60;99.90
5901;DHT22;2976;49.764;9.796;2023-05-20T09:22:37;19.20;99.90
5901;DHT22;2976;49.764;9.796;2023-05-20T09:25:03;19.50;99.90
5901;DHT22;2976;49.764;9.796;2023-05-20T09:27:28;19.80;99.90
5901;DHT22;2976;49.764;9.796;2023-05-20T09:29:54;20.00;99.90
5901;DHT22;2976;49.764;9.796;2023-05-20T09:32:20;20.40;99.90
5901;DHT22;2976;49.764;9.796;2023-05-20T09:34:48;20.70;99.90
5901;DHT22;2976;49.764;9.796;2023-05-20T09:37:17;21.10;99.90
5901;DHT22;2976;49.764;9.796;2023-05-20T09:39:56;20.70;99.90
5901;DHT22;2976;49.764;9.796;2023-05-20T09:43:08;21.10;99.90
5901;DHT22;2976;49.764;9.796;2023-05-20T09:45:14;21.20;99.90
5901;DHT22;2976;49.764;9.796;2023-05-20T09:47:40;20.70;99.90
5901;DHT22;2976;49.764;9.796;2023-05-20T09:50:08;20.70;99.90
5901;DHT22;2976;49.764;9.796;2023-05-20T09:52:37;20.40;99.90
5901;DHT22;2976;49.764;9.796;2023-05-20T09:55:04;20.70;99.90
5901;DHT22;2976;49.764;9.796;2023-05-20T09:57:34;21.20;99.90
5901;DHT22;2976;49.764;9.796;2023-05-20T10:00:01;21.40;99.90
5901;DHT22;2976;49.764;9.796;2023-05-20T10:02:27;21.90;99.90
5901;DHT22;2976;49.764;9.796;2023-05-20T10:04:55;21.60;99.90
5901;DHT22;2976;49.764;9.796;2023-05-20T10:12:58;20.90;99.90
5901;DHT22;2976;49.764;9.796;2023-05-20T10:15:52;21.00;99.90
5901;DHT22;2976;49.764;9.796;2023-05-20T10:18:27;21.50;99.90
5901;DHT22;2976;49.764;9.796;2023-05-20T10:20:54;21.60;99.90
5901;DHT22;2976;49.764;9.796;2023-05-20T10:23:23;21.60;99.90
5901;DHT22;2976;49.764;9.796;2023-05-20T10:25:53;22.00;99.90
5901;DHT22;2976;49.764;9.796;2023-05-20T10:28:30;22.20;99.90
5901;DHT22;2976;49.764;9.796;2023-05-20T10:30:58;22.00;99.90
5901;DHT22;2976;49.764;9.796;2023-05-20T10:33:25;21.80;99.90
5901;DHT22;2976;49.764;9.796;2023-05-20T10:35:53;21.70;99.90
5901;DHT22;2976;49.764;9.796;2023-05-20T10:38:19;21.70;99.90
5901;DHT22;2976;49.764;9.796;2023-05-20T10:40:46;21.20;99.90
5901;DHT22;2976;49.764;9.796;2023-05-20T10:43:13;21.20;99.90
5901;DHT22;2976;49.764;9.796;2023-05-20T10:45:56;21.40;99.90
5901;DHT22;2976;49.764;9.796;2023-05-20T10:48:24;21.20;99.90
5901;DHT22;2976;49.764;9.796;2023-05-20T10:50:53;21.20;99.90
5901;DHT22;2976;49.764;9.796;2023-05-20T10:53:21;21.10;99.90
5901;DHT22;2976;49.764;9.796;2023-05-20T10:55:49;21.00;99.90
5901;DHT22;2976;49.764;9.796;2023-05-20T10:58:23;20.90;99.90
5901;DHT22;2976;49.764;9.796;2023-05-20T11:00:51;21.10;99.90
5901;DHT22;2976;49.764;9.796;2023-05-20T11:03:17;21.10;99.90
5901;DHT22;2976;49.764;9.796;2023-05-20T11:05:46;21.60;99.90
5901;DHT22;2976;49.764;9.796;2023-05-20T11:08:12;21.90;99.90
5901;DHT22;2976;49.764;9.796;2023-05-20T11:10:38;22.30;99.90
5901;DHT22;2976;49.764;9.796;2023-05-20T11:13:04;22.50;99.90
5901;DHT22;2976;49.764;9.796;2023-05-20T11:15:30;22.80;99.90
5901;DHT22;2976;49.764;9.796;2023-05-20T11:18:00;23.20;99.90
5901;DHT22;2976;49.764;9.796;2023-05-20T11:20:26;22.90;99.90
5901;DHT22;2976;49.764;9.796;2023-05-20T11:22:55;23.50;99.90
5901;DHT22;2976;49.764;9.796;2023-05-20T11:25:21;23.10;96.40
5901;DHT22;2976;49.764;9.796;2023-05-20T11:27:48;22.70;98.70
5901;DHT22;2976;49.764;9.796;2023-05-20T11:30:15;22.30;99.20
5901;DHT22;2976;49.764;9.796;2023-05-20T11:32:54;21.80;99.90
5901;DHT22;2976;49.764;9.796;2023-05-20T11:35:24;22.00;99.90
5901;DHT22;2976;49.764;9.796;2023-05-20T11:37:59;22.00;99.90
5901;DHT22;2976;49.764;9.796;2023-05-20T11:40:26;22.00;99.90
5901;DHT22;2976;49.764;9.796;2023-05-20T11:42:56;21.80;99.90
5901;DHT22;2976;49.764;9.796;2023-05-20T11:45:22;21.80;99.90
5901;DHT22;2976;49.764;9.796;2023-05-20T11:48:02;21.70;99.90
5901;DHT22;2976;49.764;9.796;2023-05-20T11:50:33;21.70;99.90
5901;DHT22;2976;49.764;9.796;2023-05-20T11:53:02;21.70;99.90
5901;DHT22;2976;49.764;9.796;2023-05-20T11:55:28;22.10;99.90
5901;DHT22;2976;49.764;9.796;2023-05-20T11:57:57;22.40;99.90
5901;DHT22;2976;49.764;9.796;2023-05-20T12:00:23;22.80;99.90
5901;DHT22;2976;49.764;9.796;2023-05-20T12:02:49;23.00;99.40
5901;DHT22;2976;49.764;9.796;2023-05-20T12:05:14;23.10;99.00
5901;DHT22;2976;49.764;9.796;2023-05-20T12:07:41;23.20;99.90
5901;DHT22;2976;49.764;9.796;2023-05-20T12:10:07;23.20;95.80
5901;DHT22;2976;49.764;9.796;2023-05-20T12:12:33;23.00;94.90
5901;DHT22;2976;49.764;9.796;2023-05-20T12:14:58;23.00;94.00
5901;DHT22;2976;49.764;9.796;2023-05-20T12:17:24;22.70;94.00
5901;DHT22;2976;49.764;9.796;2023-05-20T12:19:49;22.10;94.50
5901;DHT22;2976;49.764;9.796;2023-05-20T12:22:15;22.50;99.50
5901;DHT22;2976;49.764;9.796;2023-05-20T12:24:40;22.20;99.90
5901;DHT22;2976;49.764;9.796;2023-05-20T12:27:06;22.70;99.90
5901;DHT22;2976;49.764;9.796;2023-05-20T12:29:32;22.90;99.00
5901;DHT22;2976;49.764;9.796;2023-05-20T12:31:58;23.30;99.80
5901;DHT22;2976;49.764;9.796;2023-05-20T12:34:24;23.50;92.80
5901;DHT22;2976;49.764;9.796;2023-05-20T12:36:50;23.60;90.10
5901;DHT22;2976;49.764;9.796;2023-05-20T12:39:15;23.50;90.90
5901;DHT22;2976;49.764;9.796;2023-05-20T12:41:43;23.10;89.50
5901;DHT22;2976;49.764;9.796;2023-05-20T12:44:08;22.70;89.70
5901;DHT22;2976;49.764;9.796;2023-05-20T12:46:35;22.90;91.90
5901;DHT22;2976;49.764;9.796;2023-05-20T12:49:01;22.90;93.00
5901;DHT22;2976;49.764;9.796;2023-05-20T12:51:27;22.80;92.70
5901;DHT22;2976;49.764;9.796;2023-05-20T12:53:52;22.60;92.40
5901;DHT22;2976;49.764;9.796;2023-05-20T12:56:18;22.20;93.00
5901;DHT22;2976;49.764;9.796;2023-05-20T12:58:44;22.00;94.40
5901;DHT22;2976;49.764;9.796;2023-05-20T13:01:10;22.20;96.60
5901;DHT22;2976;49.764;9.796;2023-05-20T13:03:35;22.50;96.10
5901;DHT22;2976;49.764;9.796;2023-05-20T13:06:01;22.50;94.30
5901;DHT22;2976;49.764;9.796;2023-05-20T13:08:27;22.30;95.40
5901;DHT22;2976;49.764;9.796;2023-05-20T13:10:53;22.40;95.70
5901;DHT22;2976;49.764;9.796;2023-05-20T13:13:18;22.60;98.20
5901;DHT22;2976;49.764;9.796;2023-05-20T13:15:49;22.70;96.80
5901;DHT22;2976;49.764;9.796;2023-05-20T13:18:14;22.80;99.40
5901;DHT22;2976;49.764;9.796;2023-05-20T13:20:43;23.00;96.60
5901;DHT22;2976;49.764;9.796;2023-05-20T13:23:09;23.10;97.00
5901;DHT22;2976;49.764;9.796;2023-05-20T13:25:35;22.80;94.10
5901;DHT22;2976;49.764;9.796;2023-05-20T13:28:02;22.30;93.50
5901;DHT22;2976;49.764;9.796;2023-05-20T13:30:28;22.10;95.30
5901;DHT22;2976;49.764;9.796;2023-05-20T13:32:53;22.30;95.80
5901;DHT22;2976;49.764;9.796;2023-05-20T13:35:19;22.20;96.70
5901;DHT22;2976;49.764;9.796;2023-05-20T13:37:45;22.40;97.30
5901;DHT22;2976;49.764;9.796;2023-05-20T13:40:11;22.60;99.10
5901;DHT22;2976;49.764;9.796;2023-05-20T13:42:36;22.90;97.50
5901;DHT22;2976;49.764;9.796;2023-05-20T13:45:03;22.90;99.40
5901;DHT22;2976;49.764;9.796;2023-05-20T13:47:28;22.90;97.80
5901;DHT22;2976;49.764;9.796;2023-05-20T13:49:54;22.70;97.40
5901;DHT22;2976;49.764;9.796;2023-05-20T13:52:19;22.90;99.00
5901;DHT22;2976;49.764;9.796;2023-05-20T13:54:45;23.20;99.10
5901;DHT22;2976;49.764;9.796;2023-05-20T13:57:13;23.30;97.60
5901;DHT22;2976;49.764;9.796;2023-05-20T13:59:38;23.30;96.30
5901;DHT22;2976;49.764;9.796;2023-05-20T14:02:04;23.00;95.10
5901;DHT22;2976;49.764;9.796;2023-05-20T14:04:31;23.10;96.80
5901;DHT22;2976;49.764;9.796;2023-05-20T14:07:02;23.10;97.10
5901;DHT22;2976;49.764;9.796;2023-05-20T14:09:28;23.40;99.40
5901;DHT22;2976;49.764;9.796;2023-05-20T14:11:54;23.40;95.20
5901;DHT22;2976;49.764;9.796;2023-05-20T14:14:19;23.30;97.00
5901;DHT22;2976;49.764;9.796;2023-05-20T14:16:45;23.00;95.00
5901;DHT22;2976;49.764;9.796;2023-05-20T14:19:11;22.70;95.20
5901;DHT22;2976;49.764;9.796;2023-05-20T14:21:36;22.30;95.90
5901;DHT22;2976;49.764;9.796;2023-05-20T14:24:02;22.30;98.20
5901;DHT22;2976;49.764;9.796;2023-05-20T14:26:28;22.40;98.00
5901;DHT22;2976;49.764;9.796;2023-05-20T14:28:53;22.60;99.50
5901;DHT22;2976;49.764;9.796;2023-05-20T14:31:19;22.60;97.80
5901;DHT22;2976;49.764;9.796;2023-05-20T14:33:44;22.90;99.90
5901;DHT22;2976;49.764;9.796;2023-05-20T14:36:10;23.20;99.90
5901;DHT22;2976;49.764;9.796;2023-05-20T14:38:36;23.50;99.50
5901;DHT22;2976;49.764;9.796;2023-05-20T14:41:01;23.20;95.80
5901;DHT22;2976;49.764;9.796;2023-05-20T14:43:27;23.00;95.30
5901;DHT22;2976;49.764;9.796;2023-05-20T14:45:53;23.00;97.80
5901;DHT22;2976;49.764;9.796;2023-05-20T14:48:18;22.70;98.80
5901;DHT22;2976;49.764;9.796;2023-05-20T14:50:44;22.70;97.10
5901;DHT22;2976;49.764;9.796;2023-05-20T14:53:10;22.90;99.60
5901;DHT22;2976;49.764;9.796;2023-05-20T14:55:35;23.00;98.40
5901;DHT22;2976;49.764;9.796;2023-05-20T14:58:01;23.00;99.90
5901;DHT22;2976;49.764;9.796;2023-05-20T15:00:26;22.90;97.70
5901;DHT22;2976;49.764;9.796;2023-05-20T15:02:52;22.80;98.40
5901;DHT22;2976;49.764;9.796;2023-05-20T15:05:17;22.70;97.10
5901;DHT22;2976;49.764;9.796;2023-05-20T15:07:43;22.70;97.70
5901;DHT22;2976;49.764;9.796;2023-05-20T15:10:08;22.60;98.60
5901;DHT22;2976;49.764;9.796;2023-05-20T15:12:34;22.60;99.90
5901;DHT22;2976;49.764;9.796;2023-05-20T15:15:00;22.80;99.90
5901;DHT22;2976;49.764;9.796;2023-05-20T15:17:25;22.90;99.40
5901;DHT22;2976;49.764;9.796;2023-05-20T15:19:51;23.00;99.90
5901;DHT22;2976;49.764;9.796;2023-05-20T15:22:16;22.90;98.20
5901;DHT22;2976;49.764;9.796;2023-05-20T15:24:42;22.70;98.80
5901;DHT22;2976;49.764;9.796;2023-05-20T15:27:07;22.80;98.00
5901;DHT22;2976;49.764;9.796;2023-05-20T15:29:33;22.80;98.10
5901;DHT22;2976;49.764;9.796;2023-05-20T15:31:58;22.90;99.90
5901;DHT22;2976;49.764;9.796;2023-05-20T15:34:24;22.90;99.90
5901;DHT22;2976;49.764;9.796;2023-05-20T15:36:50;23.10;99.80
5901;DHT22;2976;49.764;9.796;2023-05-20T15:39:15;23.20;99.90
5901;DHT22;2976;49.764;9.796;2023-05-20T15:41:41;23.20;98.00
5901;DHT22;2976;49.764;9.796;2023-05-20T15:44:07;23.30;99.70
5901;DHT22;2976;49.764;9.796;2023-05-20T15:46:32;23.40;99.90
5901;DHT22;2976;49.764;9.796;2023-05-20T15:48:58;23.60;99.90
5901;DHT22;2976;49.764;9.796;2023-05-20T15:51:23;23.70;99.10
5901;DHT22;2976;49.764;9.796;2023-05-20T15:53:49;23.60;97.50
5901;DHT22;2976;49.764;9.796;2023-05-20T15:56:15;23.70;99.90
5901;DHT22;2976;49.764;9.796;2023-05-20T15:58:40;23.80;97.00
5901;DHT22;2976;49.764;9.796;2023-05-20T16:01:06;23.60;96.90
5901;DHT22;2976;49.764;9.796;2023-05-20T16:03:32;23.70;98.10
5901;DHT22;2976;49.764;9.796;2023-05-20T16:05:57;23.60;94.90
5901;DHT22;2976;49.764;9.796;2023-05-20T16:08:23;23.30;95.10